James Reserve, California Weather observations

Data are for 10 minute period ending at time listed.
 Day   Time   Solar   Ave.   Ave.  Ave.  Vector  Max.   Baro.   Total    
  of    of     Rad.   Air    Rel.  Wind   Wind   Wind  Press.  Precip.   
Year   Day            Temp.  Hum.  Speed  Dir.   Gust                    
2014   (PST)  Kw/m2    F      %     mph   deg.    mph    mb.     in.     
-------------------------------------------------------------------------
 113   10:20   0.83   52.4    58    0.8   179     1.9   835.0    0.00 
 113   10:30   0.45   53.5    53    1.0   201     2.1   835.0    0.00 
 113   10:40   0.57   53.0    60    1.1   196     2.2   835.0    0.00 
 113   10:50   0.66   52.5    61    0.9   180     2.5   835.0    0.00 
 113   11:00   0.73   53.3    57    1.3   157     3.0   835.0    0.00 
 113   11:10   1.01   53.6    57    1.1   194     2.5   835.0    0.00 
 113   11:20   0.90   54.8    54    1.3   174     2.6   835.0    0.00 
 113   11:30   0.68   55.8    54    1.0   194     3.1   835.0    0.00 
 113   11:40   0.52   56.7    52    0.8   239     2.7   835.0    0.00 
 113   11:50   0.64   55.2    53    1.0    44     3.2   835.0    0.00 
 113   12:00   0.58   53.9    54    0.9   269     2.2   835.0    0.00 
 113   12:10   0.81   54.1    54    0.9   212     2.5   835.0    0.00 
 113   12:20   0.79   55.3    51    0.9   208     2.8   835.0    0.00 
 113   12:30   1.03   56.0    50    0.9   236     2.4   835.0    0.00 
 113   12:40   1.02   57.1    47    1.2   188     3.5   835.0    0.00 
 113   12:50   0.98   56.6    48    1.0   178     2.2   835.0    0.00 
 113   13:00   0.96   57.5    46    1.3   202     3.0   835.0    0.00 
 113   13:10   0.97   58.2    45    1.1   165     2.9   835.0    0.00 
 113   13:20   0.94   58.3    45    1.3   221     3.9   835.0    0.00 
 113   13:30   0.93   59.0    43    1.2   213     3.1   835.0    0.00 
 113   13:40   0.90   58.4    44    1.0   191     3.1   835.0    0.00 
 113   13:50   0.86   58.9    44    1.1   206     3.4   835.0    0.00 
 113   14:00   0.82   58.3    44    1.0   295     2.0   835.0    0.00 
 113   14:10   0.78   57.8    44    1.1   211     2.8   835.0    0.00 
 113   14:20   0.74   57.9    46    0.9   326     2.7   835.0    0.00 
 113   14:30   0.27   58.4    45    0.9   180     3.3   835.0    0.00 
 113   14:40   0.13   58.1    45    0.9   273     2.5   835.0    0.00 
 113   14:50   0.17   57.3    46    0.8   252     3.1   835.0    0.00 
 113   15:00   0.16   57.0    48    0.8   236     1.8   835.0    0.00 
 113   15:10   0.15   56.6    48    0.9   137     2.5   835.0    0.00 
 113   15:20   0.13   56.5    48    0.9   164     2.5   835.0    0.00 
 113   15:30   0.14   56.6    47    1.0   182     2.6   835.0    0.00 
 113   15:40   0.11   56.0    47    1.0   199     2.1   835.0    0.00 
 113   15:50   0.09   55.8    47    0.8   297     2.8   835.0    0.00 
 113   16:00   0.08   55.8    47    0.8   345     2.0   835.0    0.00 
 113   16:10   0.10   56.1    46    1.0   159     2.5   835.0    0.00 
 113   16:20   0.06   56.1    44    0.8   158     2.2   835.0    0.00 
 113   16:30   0.06   55.9    44    0.5   170     1.9   835.0    0.00 
 113   16:40   0.05   55.5    44    0.8   156     2.6   835.0    0.00 
 113   16:50   0.04   55.1    44    0.6   194     1.4   835.0    0.00 
 113   17:00   0.04   54.6    45    0.7   180     1.9   835.0    0.00 
 113   17:10   0.03   54.2    48    0.8   140     1.7   835.0    0.00 
 113   17:20   0.03   53.7    49    0.6   286     1.6   835.0    0.00 
 113   17:30   0.02   53.0    54    0.6   149     1.6   835.0    0.00 
 113   17:40   0.02   52.2    58    0.3   176     1.1   835.0    0.00 
 113   17:50   0.01   51.2    62    0.3   358     0.7   835.0    0.00 
 113   18:00   0.01   50.7    63    0.4   355     0.9   835.0    0.00 
 113   18:10   0.01   50.1    64    0.3    31     0.6   835.0    0.00 
 113   18:20   0.00   49.4    66    0.4   355     0.6   835.0    0.00 
 113   18:30   0.00   48.4    68    0.3   349     0.8   836.0    0.00 
 113   18:40   0.00   47.4    69    0.3   345     0.6   836.0    0.00 
 113   18:50   0.00   46.3    70    0.2   331     0.6   836.0    0.00 
 113   19:00   0.00   45.2    72    0.3     1     0.6   836.0    0.00 
 113   19:10   0.00   44.7    74    0.4    23     0.8   836.0    0.00 
 113   19:20   0.00   43.9    74    0.3   339     0.7   836.0    0.00 
 113   19:30   0.00   43.2    76    0.4     2     0.8   836.0    0.00 
 113   19:40   0.00   42.9    76    0.4     3     0.7   836.0    0.00 
 113   19:50   0.00   42.3    74    0.4   360     0.6   836.0    0.00 
 113   20:00   0.00   41.5    68    0.4   349     0.6   836.0    0.00 
 113   20:10   0.00   40.9    65    0.3     6     0.6   836.0    0.00 
 113   20:20   0.00   40.2    67    0.4    14     0.6   836.0    0.00 
 113   20:30   0.00   39.8    67    0.3    15     0.5   836.0    0.00 
 113   20:40   0.00   39.5    66    0.3     8     0.6   836.0    0.00 
 113   20:50   0.00   39.3    66    0.3     7     0.4   836.0    0.00 
 113   21:00   0.00   39.1    67    0.3    15     0.5   837.0    0.00 
 113   21:10   0.00   39.0    68    0.3    21     0.5   837.0    0.00 
 113   21:20   0.00   38.9    70    0.3    26     0.5   837.0    0.00 
 113   21:30   0.00   38.9    71    0.3    16     0.6   837.0    0.00 
 113   21:40   0.00   38.8    72    0.3    16     0.6   837.0    0.00 
 113   21:50   0.00   38.7    73    0.3    20     0.5   836.0    0.00 
 113   22:00   0.00   38.6    73    0.3    14     0.6   837.0    0.00 
 113   22:10   0.00   38.5    72    0.3    24     0.6   836.0    0.00 
 113   22:20   0.00   38.4    72    0.3    21     0.6   837.0    0.00 
 113   22:30   0.00   38.4    72    0.4    22     0.8   836.0    0.00 
 113   22:40   0.00   38.5    72    0.3    16     0.6   836.0    0.00 
 113   22:50   0.00   38.3    72    0.3    22     0.6   836.0    0.00 
 113   23:00   0.00   38.1    73    0.3    13     0.6   836.0    0.00 
 113   23:10   0.00   37.8    73    0.3    22     0.6   836.0    0.00 
 113   23:20   0.00   37.5    74    0.3    22     0.7   836.0    0.00 
 113   23:30   0.00   37.2    73    0.3    20     0.6   836.0    0.00 
 113   23:40   0.00   36.9    72    0.3    22     0.6   836.0    0.00 
 113   23:50   0.00   36.6    69    0.3    22     0.6   836.0    0.00 
 114    0:00   0.00   36.3    66    0.3    30     0.6   836.0    0.00 
 114    0:10   0.00   36.0    65    0.3    18     0.6   836.0    0.00 
 114    0:20   0.00   35.7    64    0.3    18     0.5   836.0    0.00 
 114    0:30   0.00   35.4    64    0.3   356     0.5   836.0    0.00 
 114    0:40   0.00   35.2    62    0.3    11     0.4   836.0    0.00 
 114    0:50   0.00   35.2    62    0.3    24     0.6   836.0    0.00 
 114    1:00   0.00   35.2    62    0.3    24     0.5   836.0    0.00 
 114    1:10   0.00   35.0    62    0.2   360     0.6   836.0    0.00 
 114    1:20   0.00   35.0    62    0.2    26     0.4   836.0    0.00 
 114    1:30   0.00   35.2    62    0.3    33     0.4   836.0    0.00 
 114    1:40   0.00   35.5    62    0.3    32     0.5   836.0    0.00 
 114    1:50   0.00   35.7    62    0.3    27     0.4   836.0    0.00 
 114    2:00   0.00   35.7    63    0.3    35     0.5   836.0    0.00 
 114    2:10   0.00   35.5    64    0.3     2     0.5   836.0    0.00 
 114    2:20   0.00   35.4    64    0.3   358     0.5   836.0    0.00 
 114    2:30   0.00   35.3    63    0.2    14     0.4   836.0    0.00 
 114    2:40   0.00   35.2    64    0.2    10     0.4   836.0    0.00 
 114    2:50   0.00   35.1    63    0.3    34     0.5   836.0    0.00 
 114    3:00   0.00   35.1    64    0.3    21     0.4   836.0    0.00 
 114    3:10   0.00   35.0    64    0.3    17     0.4   836.0    0.00 
 114    3:20   0.00   35.0    64    0.3    24     0.6   836.0    0.00 
 114    3:30   0.00   34.9    64    0.3    16     0.6   836.0    0.00 
 114    3:40   0.00   34.8    65    0.3    32     0.5   836.0    0.00 
 114    3:50   0.00   34.7    65    0.3    14     0.4   836.0    0.00 
 114    4:00   0.00   34.5    66    0.3    27     0.5   836.0    0.00 
 114    4:10   0.00   34.4    66    0.3    25     0.6   836.0    0.00 
 114    4:20   0.00   34.4    65    0.3    33     0.5   836.0    0.00 
 114    4:30   0.00   34.4    66    0.3    25     0.5   836.0    0.00 
 114    4:40   0.00   34.3    66    0.3    19     0.5   836.0    0.00 
 114    4:50   0.00   34.2    67    0.3    37     0.5   836.0    0.00 
 114    5:00   0.00   34.2    67    0.3    14     0.5   836.0    0.00 
 114    5:10   0.00   34.3    68    0.2    29     0.4   836.0    0.00 
 114    5:20   0.00   34.2    68    0.3    25     0.4   836.0    0.00 
 114    5:30   0.01   34.3    68    0.3    38     0.5   836.0    0.00 
 114    5:40   0.01   34.4    68    0.3    37     0.4   837.0    0.00 
 114    5:50   0.01   34.7    68    0.2    37     0.4   837.0    0.00 
 114    6:00   0.02   34.9    68    0.3    31     0.5   837.0    0.00 
 114    6:10   0.02   35.2    68    0.3    38     0.5   837.0    0.00 
 114    6:20   0.03   35.7    67    0.4    44     0.6   837.0    0.00 
 114    6:30   0.03   36.4    67    0.5    50     0.7   837.0    0.00 
 114    6:40   0.03   37.2    67    0.7    49     0.9   837.0    0.00 
 114    6:50   0.04   38.2    66    0.7    53     0.8   837.0    0.00 
 114    7:00   0.07   39.1    64    0.7    53     0.9   837.0    0.00 
 114    7:10   0.05   40.1    64    0.7    53     0.9   837.0    0.00 
 114    7:20   0.07   41.1    63    0.7    53     0.9   837.0    0.00 
 114    7:30   0.05   42.0    62    0.7    55     0.9   837.0    0.00 
 114    7:40   0.05   43.1    60    0.7    60     1.1   837.0    0.00 
 114    7:50   0.08   44.6    57    0.6    58     1.0   837.0    0.00 
 114    8:00   0.56   46.9    54    0.5    44     1.2   837.0    0.00 
 114    8:10   0.61   50.0    48    0.5    83     1.0   837.0    0.00 
 114    8:20   0.68   53.7    37    0.6   106     1.6   837.0    0.00 
 114    8:30   0.71   56.4    29    0.5   164     1.8   837.0    0.00 
 114    8:40   0.49   57.0    28    0.9    78     2.3   837.0    0.00 
 114    8:50   0.56   58.0    29    0.7   244     2.1   837.0    0.00 
 114    9:00   0.47   59.4    29    0.8   211     1.8   837.0    0.00 
 114    9:10   0.83   58.2    31    0.9   156     3.6   837.0    0.00 
 114    9:20   0.87   58.2    31    0.9   182     2.6   837.0    0.00 
 114    9:30   0.89   60.1    28    0.8   247     2.2   837.0    0.00 
 114    9:40   0.92   59.8    28    0.7   148     2.0   837.0    0.00 
 114    9:50   0.94   60.5    29    0.8   210     2.5   837.0    0.00 
 114   10:00   0.96   61.9    29    0.8   334     2.2   837.0    0.00 
 114   10:10   0.98   62.0    30    1.0   305     2.9   837.0    0.00 

Return to James Reserve graphs page.


Western Regional Climate Center,wrcc@dri.edu